createdAt,value
2022-12-18T00:01:35.205Z,71.32
2022-12-18T00:04:10.066Z,69.38
2022-12-18T00:06:39.022Z,61.13
2022-12-18T00:09:07.701Z,64.22
2022-12-18T00:11:37.017Z,68.60
2022-12-18T00:14:05.976Z,70.20
2022-12-18T00:16:38.120Z,67.38
2022-12-18T00:19:08.460Z,70.47
2022-12-18T00:21:36.989Z,66.05
2022-12-18T00:24:06.741Z,70.27
2022-12-18T00:26:36.798Z,70.55
2022-12-18T00:29:08.394Z,70.00
2022-12-18T00:31:40.346Z,67.22
2022-12-18T00:34:10.013Z,69.32
2022-12-18T00:36:42.398Z,73.30
2022-12-18T00:39:13.537Z,69.40
2022-12-18T00:42:00.220Z,66.20
2022-12-18T00:44:29.635Z,65.10
2022-12-18T00:46:59.906Z,63.72
2022-12-18T00:49:28.907Z,62.30
2022-12-18T00:51:57.625Z,62.53
2022-12-18T00:54:26.589Z,54.08
2022-12-18T00:56:56.332Z,62.97
2022-12-18T00:59:25.748Z,58.35
2022-12-18T01:01:54.412Z,61.10
2022-12-18T01:04:24.623Z,56.22
2022-12-18T01:06:53.363Z,60.55
2022-12-18T01:09:22.653Z,65.25
2022-12-18T01:11:54.494Z,68.95
2022-12-18T01:14:23.590Z,63.97
2022-12-18T01:16:52.385Z,68.93
2022-12-18T01:19:21.445Z,63.85
2022-12-18T01:21:51.723Z,67.63
2022-12-18T01:24:21.081Z,67.13
2022-12-18T01:26:51.157Z,60.53
2022-12-18T01:29:20.466Z,67.32
2022-12-18T01:31:49.215Z,65.85
2022-12-18T01:34:18.406Z,54.75
2022-12-18T01:36:47.293Z,55.22
2022-12-18T01:39:17.625Z,57.03
2022-12-18T01:42:03.920Z,55.10
2022-12-18T01:44:59.975Z,55.17
2022-12-18T01:47:33.138Z,62.03
2022-12-18T01:50:06.006Z,61.50
2022-12-18T01:52:36.141Z,58.83
2022-12-18T01:55:08.526Z,52.92
2022-12-18T01:57:38.839Z,61.38
2022-12-18T02:00:11.255Z,62.92
2022-12-18T02:02:44.729Z,62.95
2022-12-18T02:05:19.056Z,54.87
2022-12-18T02:08:16.069Z,64.05
2022-12-18T02:10:54.017Z,60.08
2022-12-18T02:13:39.030Z,56.40
2022-12-18T02:16:15.239Z,60.30
2022-12-18T02:18:49.948Z,63.30
2022-12-18T02:21:31.096Z,52.90
2022-12-18T02:24:13.181Z,62.20
2022-12-18T02:26:48.319Z,58.45
2022-12-18T02:29:20.303Z,61.33
2022-12-18T02:31:54.499Z,60.83
2022-12-18T02:34:28.541Z,59.83
2022-12-18T02:36:59.462Z,67.07
2022-12-18T02:39:32.013Z,60.22
2022-12-18T02:42:09.170Z,67.78
2022-12-18T02:44:44.838Z,57.57
2022-12-18T02:47:15.995Z,61.90
2022-12-18T02:49:55.792Z,75.75
2022-12-18T02:52:33.453Z,64.57
2022-12-18T02:55:12.921Z,56.45
2022-12-18T02:57:50.823Z,61.80
2022-12-18T03:00:26.090Z,62.20
2022-12-18T03:03:02.185Z,64.60
2022-12-18T03:05:36.573Z,74.00
2022-12-18T03:08:09.802Z,63.65
2022-12-18T03:10:45.340Z,61.67
2022-12-18T03:13:21.366Z,59.63
2022-12-18T03:15:53.454Z,62.55
2022-12-18T03:18:26.733Z,64.68
2022-12-18T03:20:59.425Z,64.75
2022-12-18T03:23:34.848Z,61.50
2022-12-18T03:26:07.875Z,63.78
2022-12-18T03:28:45.028Z,60.65
2022-12-18T03:31:16.725Z,57.72
2022-12-18T03:33:53.402Z,58.88
2022-12-18T03:36:27.554Z,63.00
2022-12-18T03:38:59.528Z,62.20
2022-12-18T03:41:34.426Z,57.85
2022-12-18T03:44:30.443Z,53.08
2022-12-18T03:47:07.529Z,55.30
2022-12-18T03:49:41.333Z,55.53
2022-12-18T03:52:14.107Z,49.15
2022-12-18T03:54:44.997Z,52.83
2022-12-18T03:57:20.707Z,45.50
2022-12-18T03:59:58.797Z,45.88
2022-12-18T04:02:34.587Z,45.43
2022-12-18T04:05:07.350Z,46.17
2022-12-18T04:07:40.910Z,47.67
2022-12-18T04:10:15.692Z,41.60
2022-12-18T04:12:45.823Z,45.55
2022-12-18T04:15:17.438Z,46.47
2022-12-18T04:17:51.077Z,46.28
2022-12-18T04:20:24.157Z,48.70
2022-12-18T04:22:53.360Z,49.22
2022-12-18T04:25:22.830Z,48.20
2022-12-18T04:28:01.387Z,43.07
2022-12-18T04:30:32.400Z,47.60
2022-12-18T04:33:01.350Z,42.17
2022-12-18T04:35:32.809Z,46.10
2022-12-18T04:38:01.882Z,39.83
2022-12-18T04:40:30.725Z,49.37
2022-12-18T04:43:00.316Z,44.58
2022-12-18T04:45:29.085Z,49.45
2022-12-18T04:48:00.879Z,39.97
2022-12-18T04:50:30.230Z,53.40
2022-12-18T04:52:59.484Z,47.57
2022-12-18T04:55:29.520Z,50.30
2022-12-18T04:57:58.214Z,49.85
2022-12-18T05:00:27.192Z,47.17
2022-12-18T05:02:56.621Z,49.90
2022-12-18T05:05:27.418Z,44.73
2022-12-18T05:07:56.196Z,50.88
2022-12-18T05:10:25.463Z,50.88
2022-12-18T05:13:10.778Z,46.55
2022-12-18T05:15:39.929Z,45.63
2022-12-18T05:18:08.783Z,45.23
2022-12-18T05:20:38.931Z,47.28
2022-12-18T05:23:07.559Z,44.22
2022-12-18T05:25:36.850Z,44.47
2022-12-18T05:28:06.267Z,43.28
2022-12-18T05:30:35.419Z,41.37
2022-12-18T05:33:04.198Z,49.42
2022-12-18T05:35:33.266Z,49.58
2022-12-18T05:38:03.218Z,45.13
2022-12-18T05:40:32.487Z,43.40
2022-12-18T05:43:02.318Z,46.17
2022-12-18T05:45:34.186Z,42.90
2022-12-18T05:48:03.222Z,36.95
2022-12-18T05:50:32.202Z,42.05
2022-12-18T05:53:06.381Z,37.13
2022-12-18T05:55:36.227Z,39.93
2022-12-18T05:58:05.877Z,39.85
2022-12-18T06:00:36.602Z,47.38
2022-12-18T06:03:06.275Z,41.45
2022-12-18T06:05:37.997Z,36.58
2022-12-18T06:08:08.732Z,47.07
2022-12-18T06:10:37.794Z,45.65
2022-12-18T06:13:07.635Z,45.05
2022-12-18T06:15:39.215Z,44.80
2022-12-18T06:18:08.313Z,38.00
2022-12-18T06:20:38.197Z,38.43
2022-12-18T06:23:08.755Z,39.67
2022-12-18T06:25:40.828Z,44.10
2022-12-18T06:28:09.826Z,37.63
2022-12-18T06:30:39.436Z,40.63
2022-12-18T06:33:08.379Z,36.93
2022-12-18T06:35:36.946Z,41.47
2022-12-18T06:38:06.197Z,38.50
2022-12-18T06:40:36.387Z,44.97
2022-12-18T06:43:05.353Z,47.65
2022-12-18T06:45:33.932Z,45.77
2022-12-18T06:48:02.988Z,36.88
2022-12-18T06:50:32.096Z,43.38
2022-12-18T06:53:01.780Z,42.97
2022-12-18T06:55:31.401Z,39.28
2022-12-18T06:58:01.711Z,41.73
2022-12-18T07:00:30.349Z,39.80
2022-12-18T07:02:59.834Z,38.25
2022-12-18T07:05:28.484Z,37.85
2022-12-18T07:07:57.506Z,40.88
2022-12-18T07:10:26.400Z,38.03
2022-12-18T07:12:55.357Z,38.92
2022-12-18T07:15:25.798Z,36.72
2022-12-18T07:17:54.822Z,37.22
2022-12-18T07:20:23.434Z,40.03
2022-12-18T07:22:56.255Z,36.53
2022-12-18T07:25:25.882Z,35.65
2022-12-18T07:27:54.753Z,35.83
2022-12-18T07:30:25.266Z,31.48
2022-12-18T07:32:54.308Z,34.50
2022-12-18T07:35:25.133Z,31.20
2022-12-18T07:37:54.551Z,26.63
2022-12-18T07:40:23.371Z,26.42
2022-12-18T07:42:52.210Z,25.80
2022-12-18T07:45:21.799Z,26.95
2022-12-18T07:47:51.891Z,22.97
2022-12-18T07:50:20.958Z,23.73
2022-12-18T07:52:49.865Z,23.88
2022-12-18T07:55:18.993Z,26.63
2022-12-18T07:57:50.987Z,23.90
2022-12-18T08:00:21.994Z,27.40
2022-12-18T08:02:52.213Z,23.05
2022-12-18T08:05:21.839Z,23.88
2022-12-18T08:07:50.927Z,25.05
2022-12-18T08:10:19.788Z,22.75
2022-12-18T08:12:52.326Z,23.30
2022-12-18T08:15:21.379Z,23.83
2022-12-18T08:17:51.380Z,24.33
2022-12-18T08:20:20.567Z,22.83
2022-12-18T08:22:49.490Z,22.58
2022-12-18T08:25:18.582Z,20.40
2022-12-18T08:27:47.287Z,23.92
2022-12-18T08:30:16.639Z,22.27
2022-12-18T08:32:45.508Z,21.05
2022-12-18T08:35:18.742Z,22.45
2022-12-18T08:37:47.897Z,19.63
2022-12-18T08:40:16.551Z,24.70
2022-12-18T08:43:03.421Z,26.52
2022-12-18T08:45:36.477Z,20.30
2022-12-18T08:48:05.947Z,22.17
2022-12-18T08:50:35.960Z,19.30
2022-12-18T08:53:05.114Z,21.35
2022-12-18T08:55:34.060Z,20.95
2022-12-18T08:58:03.268Z,21.48
2022-12-18T09:00:34.070Z,19.25
2022-12-18T09:03:03.263Z,19.73
2022-12-18T09:05:32.712Z,17.58
2022-12-18T09:08:03.280Z,21.20
2022-12-18T09:10:32.258Z,20.90
2022-12-18T09:13:01.108Z,20.63
2022-12-18T09:15:29.650Z,22.23
2022-12-18T09:17:58.591Z,23.33
2022-12-18T09:20:29.475Z,19.60
2022-12-18T09:22:58.725Z,18.08
2022-12-18T09:25:33.046Z,20.88
2022-12-18T09:28:03.051Z,17.83
2022-12-18T09:30:34.460Z,19.52
2022-12-18T09:33:03.968Z,16.75
2022-12-18T09:35:33.217Z,18.60
2022-12-18T09:38:02.567Z,20.25
2022-12-18T09:40:38.421Z,19.23
2022-12-18T09:43:09.491Z,19.40
2022-12-18T09:45:45.155Z,19.90
2022-12-18T09:48:21.495Z,19.88
2022-12-18T09:50:52.494Z,18.58
2022-12-18T09:53:29.604Z,19.77
2022-12-18T09:56:00.134Z,18.17
2022-12-18T09:58:32.719Z,22.58
2022-12-18T10:01:01.618Z,17.95
2022-12-18T10:03:31.067Z,18.27
2022-12-18T10:06:07.121Z,20.73
2022-12-18T10:08:45.289Z,15.38
2022-12-18T10:11:30.030Z,20.33
2022-12-18T10:14:05.229Z,16.70
2022-12-18T10:16:41.299Z,19.63
2022-12-18T10:19:26.696Z,17.33
2022-12-18T10:22:06.640Z,17.33
2022-12-18T10:24:43.126Z,21.15
2022-12-18T10:27:17.277Z,17.38
2022-12-18T10:29:48.117Z,17.65
2022-12-18T10:32:19.506Z,16.30
2022-12-18T10:34:49.552Z,17.65
2022-12-18T10:37:21.078Z,20.38
2022-12-18T10:40:09.407Z,15.45
2022-12-18T10:42:40.917Z,21.85
2022-12-18T10:45:15.017Z,16.40
2022-12-18T10:47:46.889Z,18.38
2022-12-18T10:50:47.131Z,17.42
2022-12-18T10:53:22.612Z,15.55
2022-12-18T10:55:53.431Z,19.00
2022-12-18T10:58:34.721Z,18.60
2022-12-18T11:01:08.000Z,18.65
2022-12-18T11:03:39.617Z,20.33
2022-12-18T11:06:12.180Z,19.25
2022-12-18T11:08:41.861Z,19.85
2022-12-18T11:11:22.483Z,15.63
2022-12-18T11:14:01.766Z,18.13
2022-12-18T11:16:33.575Z,16.27
2022-12-18T11:19:23.560Z,20.15
2022-12-18T11:21:52.940Z,19.10
2022-12-18T11:24:29.866Z,19.00
2022-12-18T11:27:01.527Z,17.05
2022-12-18T11:29:36.442Z,17.85
2022-12-18T11:32:29.861Z,20.08
2022-12-18T11:35:05.707Z,16.33
2022-12-18T11:37:35.371Z,19.00
2022-12-18T11:40:12.751Z,18.67
2022-12-18T11:42:48.017Z,19.02
2022-12-18T11:49:15.040Z,22.00
2022-12-18T11:51:53.410Z,20.13
2022-12-18T11:54:22.493Z,18.02
2022-12-18T11:56:56.167Z,19.45
2022-12-18T11:59:33.141Z,19.90
2022-12-18T12:02:20.229Z,17.85
2022-12-18T12:05:03.530Z,17.47
2022-12-18T12:07:44.292Z,20.15
2022-12-18T12:10:29.441Z,16.40
2022-12-18T12:13:18.611Z,22.35
2022-12-18T12:15:54.517Z,19.35
2022-12-18T12:18:36.022Z,18.00
2022-12-18T12:21:12.817Z,19.95
2022-12-18T12:23:52.072Z,20.88
2022-12-18T12:26:28.902Z,15.63
2022-12-18T12:29:05.739Z,17.25
2022-12-18T12:31:56.054Z,17.07
2022-12-18T12:34:33.934Z,18.35
2022-12-18T12:37:18.232Z,18.00
2022-12-18T12:39:49.486Z,21.85
2022-12-18T12:42:51.542Z,19.75
2022-12-18T12:45:30.072Z,17.43
2022-12-18T12:48:00.892Z,18.25
2022-12-18T12:50:36.133Z,19.35
2022-12-18T12:53:12.808Z,15.40
2022-12-18T12:55:43.589Z,19.40
2022-12-18T12:58:20.034Z,21.90
2022-12-18T13:01:02.795Z,18.60
2022-12-18T13:03:44.330Z,19.98
2022-12-18T13:06:21.503Z,20.20
2022-12-18T13:08:57.354Z,16.08
2022-12-18T13:11:59.687Z,17.03
2022-12-18T13:14:33.480Z,18.00
2022-12-18T13:17:30.514Z,17.48
2022-12-18T13:20:11.379Z,17.35
2022-12-18T13:22:46.256Z,16.00
2022-12-18T13:25:36.228Z,17.27
2022-12-18T13:28:12.730Z,16.70
2022-12-18T13:30:55.543Z,15.98
2022-12-18T13:36:42.887Z,17.23
2022-12-18T13:39:34.245Z,17.20
2022-12-18T13:42:57.493Z,17.98
2022-12-18T13:45:43.071Z,16.48
2022-12-18T13:48:19.651Z,18.55
2022-12-18T13:50:54.871Z,16.52
2022-12-18T13:53:28.668Z,15.00
2022-12-18T13:55:59.408Z,15.75
2022-12-18T13:58:28.357Z,15.63
2022-12-18T14:00:57.886Z,18.13
2022-12-18T14:03:28.745Z,18.67
2022-12-18T14:06:02.725Z,16.03
2022-12-18T14:08:38.489Z,17.25
2022-12-18T14:11:19.524Z,15.45
2022-12-18T14:13:49.066Z,16.02
2022-12-18T14:16:20.502Z,15.27
2022-12-18T14:18:56.915Z,16.83
2022-12-18T14:21:36.307Z,17.40
2022-12-18T14:24:07.521Z,18.15
2022-12-18T14:26:37.902Z,16.50
2022-12-18T14:29:22.528Z,17.13
2022-12-18T14:32:18.329Z,16.33
2022-12-18T14:34:49.241Z,18.27
2022-12-18T14:37:22.607Z,16.92
2022-12-18T14:40:02.128Z,15.52
2022-12-18T14:42:35.026Z,14.55
2022-12-18T14:45:46.060Z,15.77
2022-12-18T14:48:23.014Z,17.48
2022-12-18T14:51:02.211Z,17.02
2022-12-18T14:53:37.969Z,17.27
2022-12-18T14:56:18.100Z,15.40
2022-12-18T14:58:50.409Z,16.70
2022-12-18T15:01:39.361Z,16.30
2022-12-18T15:04:27.944Z,16.70
2022-12-18T15:07:12.246Z,17.83
2022-12-18T15:09:42.615Z,16.05
2022-12-18T15:12:27.926Z,17.87
2022-12-18T15:14:58.562Z,15.43
2022-12-18T15:17:27.482Z,18.40
2022-12-18T15:20:02.921Z,17.10
2022-12-18T15:22:36.625Z,17.58
2022-12-18T15:25:22.943Z,16.10
2022-12-18T15:27:52.065Z,17.10
2022-12-18T15:30:24.812Z,16.20
2022-12-18T15:32:56.789Z,16.02
2022-12-18T15:35:27.440Z,19.58
2022-12-18T15:37:56.017Z,18.37
2022-12-18T15:40:26.167Z,17.73
2022-12-18T15:43:14.972Z,23.77
2022-12-18T15:45:45.522Z,20.27
2022-12-18T15:48:22.627Z,19.67
2022-12-18T15:50:52.868Z,18.03
2022-12-18T15:53:21.895Z,19.38
2022-12-18T15:56:08.766Z,16.33
2022-12-18T15:58:37.974Z,19.38
2022-12-18T16:01:10.127Z,19.38
2022-12-18T16:03:39.751Z,22.33
2022-12-18T16:06:08.976Z,18.70
2022-12-18T16:08:41.127Z,17.90
2022-12-18T16:11:38.997Z,21.65
2022-12-18T16:14:18.318Z,18.70
2022-12-18T16:16:50.592Z,19.20
2022-12-18T16:19:19.723Z,19.33
2022-12-18T16:21:49.456Z,22.50
2022-12-18T16:24:19.453Z,16.20
2022-12-18T16:26:48.038Z,19.20
2022-12-18T16:29:17.306Z,19.07
2022-12-18T16:31:46.450Z,20.35
2022-12-18T16:34:23.279Z,22.48
2022-12-18T16:36:58.922Z,21.45
2022-12-18T16:39:31.468Z,18.77
2022-12-18T16:42:00.135Z,16.77
2022-12-18T16:44:31.636Z,22.63
2022-12-18T16:47:16.534Z,21.45
2022-12-18T16:49:52.011Z,21.02
2022-12-18T16:52:26.576Z,19.60
2022-12-18T16:54:55.621Z,16.97
2022-12-18T16:57:31.294Z,20.50
2022-12-18T17:00:05.269Z,18.15
2022-12-18T17:02:37.697Z,20.58
2022-12-18T17:05:09.922Z,19.50
2022-12-18T17:07:40.623Z,20.67
2022-12-18T17:10:10.196Z,21.30
2022-12-18T17:12:39.186Z,20.67
2022-12-18T17:15:09.399Z,22.33
2022-12-18T17:17:38.373Z,22.15
2022-12-18T17:20:09.422Z,22.07
2022-12-18T17:22:38.773Z,19.45
2022-12-18T17:25:10.823Z,20.90
2022-12-18T17:27:41.123Z,21.88
2022-12-18T17:30:12.883Z,19.77
2022-12-18T17:32:52.215Z,23.87
2022-12-18T17:35:22.981Z,22.52
2022-12-18T17:37:56.052Z,18.45
2022-12-18T17:40:24.816Z,23.27
2022-12-18T17:42:54.383Z,23.60
2022-12-18T17:45:23.434Z,20.40
2022-12-18T17:47:56.776Z,19.42
2022-12-18T17:50:30.330Z,22.95
2022-12-18T17:52:59.465Z,20.88
2022-12-18T17:55:28.910Z,21.30
2022-12-18T17:57:57.654Z,22.20
2022-12-18T18:00:26.446Z,20.38
2022-12-18T18:02:55.659Z,22.13
2022-12-18T18:05:25.159Z,19.90
2022-12-18T18:07:55.503Z,22.02
2022-12-18T18:10:24.263Z,24.13
2022-12-18T18:13:10.467Z,23.27
2022-12-18T18:15:41.809Z,26.85
2022-12-18T18:18:10.764Z,20.80
2022-12-18T18:20:41.983Z,21.63
2022-12-18T18:23:12.269Z,23.93
2022-12-18T18:25:41.578Z,21.80
2022-12-18T18:28:31.228Z,24.73
2022-12-18T18:31:06.331Z,24.85
2022-12-18T18:33:36.214Z,22.70
2022-12-18T18:36:05.948Z,26.13
2022-12-18T18:38:44.116Z,22.20
2022-12-18T18:41:15.748Z,22.00
2022-12-18T18:43:44.924Z,22.95
2022-12-18T18:46:16.692Z,23.85
2022-12-18T18:48:46.015Z,28.67
2022-12-18T18:51:20.317Z,23.17
2022-12-18T18:53:55.015Z,22.85
2022-12-18T18:56:56.730Z,26.40
2022-12-18T18:59:22.340Z,23.20
2022-12-18T19:01:53.439Z,20.77
2022-12-18T19:04:22.342Z,27.02
2022-12-18T19:06:54.898Z,22.35
2022-12-18T19:09:26.387Z,25.40
2022-12-18T19:12:13.641Z,23.15
2022-12-18T19:14:42.591Z,23.40
2022-12-18T19:17:15.366Z,22.17
2022-12-18T19:19:45.231Z,27.40
2022-12-18T19:22:14.320Z,25.02
2022-12-18T19:24:44.525Z,25.45
2022-12-18T19:27:13.491Z,27.73
2022-12-18T19:29:42.698Z,26.17
2022-12-18T19:32:14.487Z,23.25
2022-12-18T19:34:43.381Z,21.52
2022-12-18T19:37:14.654Z,28.15
2022-12-18T19:39:45.101Z,24.83
2022-12-18T19:42:14.133Z,24.88
2022-12-18T19:44:42.742Z,23.20
2022-12-18T19:47:12.397Z,23.60
2022-12-18T19:49:41.160Z,23.60
2022-12-18T19:52:10.855Z,27.30
2022-12-18T19:54:39.904Z,23.38
2022-12-18T19:57:11.743Z,25.85
2022-12-18T19:59:40.713Z,27.60
2022-12-18T20:02:14.746Z,24.75
2022-12-18T20:04:44.300Z,24.53
2022-12-18T20:07:14.064Z,28.05
2022-12-18T20:09:43.882Z,29.83
2022-12-18T20:12:16.778Z,25.70
2022-12-18T20:14:46.626Z,26.15
2022-12-18T20:17:15.573Z,29.60
2022-12-18T20:19:44.606Z,29.15
2022-12-18T20:22:13.987Z,30.08
2022-12-18T20:24:43.405Z,29.27
2022-12-18T20:27:17.130Z,27.17
2022-12-18T20:29:49.761Z,29.57
2022-12-18T20:32:18.802Z,25.85
2022-12-18T20:34:47.786Z,29.00
2022-12-18T20:37:17.730Z,30.33
2022-12-18T20:39:48.411Z,29.88
2022-12-18T20:42:17.129Z,32.13
2022-12-18T20:44:45.984Z,31.13
2022-12-18T20:47:16.408Z,31.40
2022-12-18T20:49:46.124Z,31.83
2022-12-18T20:52:14.773Z,31.90
2022-12-18T20:54:43.748Z,30.80
2022-12-18T20:57:12.369Z,33.47
2022-12-18T20:59:47.789Z,28.52
2022-12-18T21:02:21.678Z,29.95
2022-12-18T21:04:50.851Z,28.30
2022-12-18T21:07:19.597Z,30.93
2022-12-18T21:09:48.495Z,32.78
2022-12-18T21:12:34.940Z,28.98
2022-12-18T21:15:12.197Z,31.73
2022-12-18T21:17:45.093Z,30.17
2022-12-18T21:20:17.896Z,29.87
2022-12-18T21:22:54.872Z,32.58
2022-12-18T21:25:27.673Z,30.42
2022-12-18T21:27:56.313Z,29.08
2022-12-18T21:30:26.621Z,29.05
2022-12-18T21:32:56.970Z,28.37
2022-12-18T21:35:25.815Z,30.10
2022-12-18T21:37:57.708Z,30.77
2022-12-18T21:40:26.674Z,28.77
2022-12-18T21:43:15.010Z,29.73
2022-12-18T21:45:46.905Z,30.80
2022-12-18T21:48:17.455Z,31.27
2022-12-18T21:50:46.408Z,30.92
2022-12-18T21:53:15.184Z,26.83
2022-12-18T21:55:44.042Z,33.83
2022-12-18T21:58:12.587Z,32.70
2022-12-18T22:00:46.965Z,33.53
2022-12-18T22:03:20.145Z,30.70
2022-12-18T22:06:00.661Z,29.75
2022-12-18T22:08:41.584Z,31.80
2022-12-18T22:11:14.361Z,27.60
2022-12-18T22:13:44.790Z,33.10
2022-12-18T22:16:13.363Z,33.58
2022-12-18T22:18:43.591Z,36.78
2022-12-18T22:21:28.770Z,33.53
2022-12-18T22:24:00.236Z,31.87
2022-12-18T22:26:35.039Z,33.83
2022-12-18T22:29:24.658Z,32.45
2022-12-18T22:31:53.888Z,31.27
2022-12-18T22:34:24.283Z,32.70
2022-12-18T22:36:53.647Z,31.33
2022-12-18T22:39:23.968Z,32.92
2022-12-18T22:41:53.481Z,29.38
2022-12-18T22:44:28.835Z,32.50
2022-12-18T22:47:05.497Z,32.63
2022-12-18T22:49:38.894Z,36.37
2022-12-18T22:52:09.887Z,33.50
2022-12-18T22:54:39.500Z,32.70
2022-12-18T22:57:08.498Z,33.05
2022-12-18T22:59:37.383Z,38.30
2022-12-18T23:02:06.164Z,30.73
2022-12-18T23:04:36.962Z,37.65
2022-12-18T23:07:06.794Z,32.55
2022-12-18T23:09:35.946Z,32.33
2022-12-18T23:12:06.095Z,33.90
2022-12-18T23:14:34.826Z,33.53
2022-12-18T23:17:03.731Z,33.88
2022-12-18T23:19:32.536Z,35.90
2022-12-18T23:22:06.115Z,34.22
2022-12-18T23:24:38.993Z,35.63
2022-12-18T23:27:11.798Z,32.93
2022-12-18T23:29:41.834Z,37.53
2022-12-18T23:32:10.667Z,35.55
2022-12-18T23:34:39.513Z,38.20
2022-12-18T23:37:09.434Z,37.58
2022-12-18T23:39:38.580Z,37.07
2022-12-18T23:42:07.646Z,31.23
2022-12-18T23:44:36.789Z,36.47
2022-12-18T23:47:07.177Z,36.22
2022-12-18T23:49:45.770Z,36.25
2022-12-18T23:52:16.544Z,40.23
2022-12-18T23:54:45.319Z,35.97
2022-12-18T23:57:14.324Z,39.65
2022-12-18T23:59:43.290Z,37.53
